Colchester, VT

13:47 EDT le 01 avril 2015 (GMT -0400)
RAWS | | Change Station
CLOSE
Current Station
Stations météorologiques personnelles
Location: Burlington, VT
Altitude: 339 ft
Stations météo à proximité

Alt. 339 ft 44.51 °N, 73.12 °W | Updated 45 minutes ago

Scattered Clouds
Nuages épars
33 ° F
Paraît 26 ° F
N
8
Vent Variable Vent de NO
Gusts 19.0 mph

Aujourd'hui
Haut(e) -- | Bas -- ° F
--% Risque de précip.
Hier
Haut(e) -- | Bas -- ° F
Precip. -- pouce
6:34 AM 7:19 PM
Lune gibbeuse croissante, 93% visible
Pression 30.12 pouce
Visibilité 10.0 Miles terrestres
Nuages Peu 20000 ft
Nuages épars 25000 ft
Refroidissement éolien 26 ° F
Point de rosée 3 ° F
Humidité 27%
Précipitations pouce
Profondeur de la couche neigeuse Non disponible.
UV 6 sur 12
Pollen 2.00 sur 12
Qualité de l'air Non disponible.
Flu Activity Non disponible.
METAR KBTV 011654Z 35009G17KT 10SM FEW200 SCT250 01/M16 A3010 RMK AO2 SLP198 T00061156

More Conditions Fewer Conditions

Pression 30.12 pouce
Visibilité 10.0 Miles terrestres
Nuages Peu 20000 ft
Nuages épars 25000 ft
Refroidissement éolien 26 ° F
Point de rosée 3 ° F
Humidité 27%
Précipitations pouce
Profondeur de la couche neigeuse Non disponible.
UV 6 sur 12
Pollen 2.00 sur 12
Qualité de l'air Non disponible.
Flu Activity Non disponible.
METAR KBTV 011654Z 35009G17KT 10SM FEW200 SCT250 01/M16 A3010 RMK AO2 SLP198 T00061156

More Conditions Fewer Conditions

10-Day Weather Forecast

Almanac

Astronomie

Apr. 01, 2015 Lever Coucher
Temps réel
Crépuscule civil
Crépuscule nautique
Crépuscule astronomique
Lune
Durée de lumière visible
Longueur du jour
Tomorrow will be .
, % of the Moon is Illuminated

Extrêmes aujourd'hui

State Highs State Lows

Community

WunderPhotos

Upload Photos

1,810,018 Photos téléchargées !

WunderBlogs® & News

Nearby

Qualité de l'air

  Qualité de l'air Indice de la qualité de l'air Polluant
Not available.

Épaisseur de neige

Station Depth Altitude

Activité sismique

Ville Distance Mag. Time & Date
Minimum magnitude displayed is 2.5.

Températures des eaux côtières

Lieu Température

Stations

Stations météo à proximité

Emplacement de la station Température Refroidissement éolien Point de rosée Humidité Vent Precip. Alt. Mise à jour Type